sensor_id;sensor_type;location;lat;lon;timestamp;P1;durP1;ratioP1;P2;durP2;ratioP2
13457;SDS011;6801;53.018;11.560;2022-11-21T00:01:18;14.23;;;7.50;;
13457;SDS011;6801;53.018;11.560;2022-11-21T00:03:47;16.25;;;9.07;;
13457;SDS011;6801;53.018;11.560;2022-11-21T00:06:15;19.95;;;9.90;;
13457;SDS011;6801;53.018;11.560;2022-11-21T00:08:44;15.45;;;8.82;;
13457;SDS011;6801;53.018;11.560;2022-11-21T00:11:11;17.17;;;9.30;;
13457;SDS011;6801;53.018;11.560;2022-11-21T00:13:39;18.90;;;9.88;;
13457;SDS011;6801;53.018;11.560;2022-11-21T00:16:07;17.65;;;10.20;;
13457;SDS011;6801;53.018;11.560;2022-11-21T00:18:36;20.42;;;10.32;;
13457;SDS011;6801;53.018;11.560;2022-11-21T00:21:03;16.98;;;8.40;;
13457;SDS011;6801;53.018;11.560;2022-11-21T00:23:32;14.93;;;7.05;;
13457;SDS011;6801;53.018;11.560;2022-11-21T00:26:03;20.50;;;9.57;;
13457;SDS011;6801;53.018;11.560;2022-11-21T00:28:31;18.50;;;10.00;;
13457;SDS011;6801;53.018;11.560;2022-11-21T00:30:58;12.98;;;7.70;;
13457;SDS011;6801;53.018;11.560;2022-11-21T00:33:25;15.40;;;9.10;;
13457;SDS011;6801;53.018;11.560;2022-11-21T00:35:53;17.45;;;8.50;;
13457;SDS011;6801;53.018;11.560;2022-11-21T00:38:20;18.10;;;10.88;;
13457;SDS011;6801;53.018;11.560;2022-11-21T00:40:48;17.92;;;9.98;;
13457;SDS011;6801;53.018;11.560;2022-11-21T00:43:17;17.70;;;10.32;;
13457;SDS011;6801;53.018;11.560;2022-11-21T00:45:44;16.65;;;8.93;;
13457;SDS011;6801;53.018;11.560;2022-11-21T00:48:11;13.60;;;7.65;;
13457;SDS011;6801;53.018;11.560;2022-11-21T00:50:38;16.65;;;10.13;;
13457;SDS011;6801;53.018;11.560;2022-11-21T00:53:05;17.38;;;8.73;;
13457;SDS011;6801;53.018;11.560;2022-11-21T00:55:32;13.25;;;7.53;;
13457;SDS011;6801;53.018;11.560;2022-11-21T00:58:01;14.70;;;7.85;;
13457;SDS011;6801;53.018;11.560;2022-11-21T01:00:30;13.57;;;7.60;;
13457;SDS011;6801;53.018;11.560;2022-11-21T01:02:57;19.08;;;9.98;;
13457;SDS011;6801;53.018;11.560;2022-11-21T01:05:24;17.00;;;8.57;;
13457;SDS011;6801;53.018;11.560;2022-11-21T01:07:51;13.00;;;7.78;;
13457;SDS011;6801;53.018;11.560;2022-11-21T01:10:18;14.43;;;7.38;;
13457;SDS011;6801;53.018;11.560;2022-11-21T01:12:45;15.88;;;8.82;;
13457;SDS011;6801;53.018;11.560;2022-11-21T01:15:12;13.68;;;7.68;;
13457;SDS011;6801;53.018;11.560;2022-11-21T01:17:41;18.00;;;9.65;;
13457;SDS011;6801;53.018;11.560;2022-11-21T01:20:08;15.98;;;9.30;;
13457;SDS011;6801;53.018;11.560;2022-11-21T01:22:36;17.23;;;10.20;;
13457;SDS011;6801;53.018;11.560;2022-11-21T01:25:03;15.90;;;8.63;;
13457;SDS011;6801;53.018;11.560;2022-11-21T01:27:30;14.43;;;7.70;;
13457;SDS011;6801;53.018;11.560;2022-11-21T01:29:58;16.13;;;9.32;;
13457;SDS011;6801;53.018;11.560;2022-11-21T01:32:25;12.90;;;7.18;;
13457;SDS011;6801;53.018;11.560;2022-11-21T01:34:53;12.07;;;6.88;;
13457;SDS011;6801;53.018;11.560;2022-11-21T01:37:20;13.57;;;7.53;;
13457;SDS011;6801;53.018;11.560;2022-11-21T01:39:47;12.25;;;6.70;;
13457;SDS011;6801;53.018;11.560;2022-11-21T01:42:14;16.48;;;8.05;;
13457;SDS011;6801;53.018;11.560;2022-11-21T01:44:45;14.10;;;7.68;;
13457;SDS011;6801;53.018;11.560;2022-11-21T01:47:14;15.40;;;7.88;;
13457;SDS011;6801;53.018;11.560;2022-11-21T01:49:41;16.75;;;9.05;;
13457;SDS011;6801;53.018;11.560;2022-11-21T01:52:11;15.38;;;7.32;;
13457;SDS011;6801;53.018;11.560;2022-11-21T01:54:44;15.80;;;8.48;;
13457;SDS011;6801;53.018;11.560;2022-11-21T01:57:15;17.85;;;8.90;;
13457;SDS011;6801;53.018;11.560;2022-11-21T01:59:45;17.15;;;9.10;;
13457;SDS011;6801;53.018;11.560;2022-11-21T02:02:16;12.55;;;7.28;;
13457;SDS011;6801;53.018;11.560;2022-11-21T02:04:46;14.23;;;7.78;;
13457;SDS011;6801;53.018;11.560;2022-11-21T02:07:16;13.40;;;7.63;;
13457;SDS011;6801;53.018;11.560;2022-11-21T02:09:48;15.43;;;7.40;;
13457;SDS011;6801;53.018;11.560;2022-11-21T02:12:20;13.85;;;7.70;;
13457;SDS011;6801;53.018;11.560;2022-11-21T02:14:50;11.48;;;6.65;;
13457;SDS011;6801;53.018;11.560;2022-11-21T02:17:18;15.00;;;8.40;;
13457;SDS011;6801;53.018;11.560;2022-11-21T02:19:47;14.30;;;7.30;;
13457;SDS011;6801;53.018;11.560;2022-11-21T02:22:21;15.40;;;8.80;;
13457;SDS011;6801;53.018;11.560;2022-11-21T02:27:43;12.70;;;7.15;;
13457;SDS011;6801;53.018;11.560;2022-11-21T02:30:11;11.77;;;6.68;;
13457;SDS011;6801;53.018;11.560;2022-11-21T02:32:39;14.73;;;9.00;;
13457;SDS011;6801;53.018;11.560;2022-11-21T02:35:10;16.85;;;9.68;;
13457;SDS011;6801;53.018;11.560;2022-11-21T02:37:38;15.00;;;8.82;;
13457;SDS011;6801;53.018;11.560;2022-11-21T02:40:07;14.77;;;8.00;;
13457;SDS011;6801;53.018;11.560;2022-11-21T02:42:40;11.93;;;6.72;;
13457;SDS011;6801;53.018;11.560;2022-11-21T02:45:13;12.85;;;6.82;;
13457;SDS011;6801;53.018;11.560;2022-11-21T02:47:43;13.25;;;7.32;;
13457;SDS011;6801;53.018;11.560;2022-11-21T02:52:44;10.77;;;6.05;;
13457;SDS011;6801;53.018;11.560;2022-11-21T02:55:11;12.57;;;6.82;;
13457;SDS011;6801;53.018;11.560;2022-11-21T02:57:41;13.18;;;6.75;;
13457;SDS011;6801;53.018;11.560;2022-11-21T03:00:09;13.13;;;6.82;;
13457;SDS011;6801;53.018;11.560;2022-11-21T03:02:37;12.77;;;7.03;;
13457;SDS011;6801;53.018;11.560;2022-11-21T03:05:04;14.00;;;8.07;;
13457;SDS011;6801;53.018;11.560;2022-11-21T03:07:33;12.25;;;6.93;;
13457;SDS011;6801;53.018;11.560;2022-11-21T03:10:01;16.45;;;9.73;;
13457;SDS011;6801;53.018;11.560;2022-11-21T03:12:28;13.38;;;7.38;;
13457;SDS011;6801;53.018;11.560;2022-11-21T03:14:56;18.08;;;9.10;;
13457;SDS011;6801;53.018;11.560;2022-11-21T03:17:23;16.60;;;8.95;;
13457;SDS011;6801;53.018;11.560;2022-11-21T03:19:50;21.42;;;14.65;;
13457;SDS011;6801;53.018;11.560;2022-11-21T03:22:17;20.05;;;10.60;;
13457;SDS011;6801;53.018;11.560;2022-11-21T03:24:44;14.77;;;7.47;;
13457;SDS011;6801;53.018;11.560;2022-11-21T03:27:11;15.88;;;9.35;;
13457;SDS011;6801;53.018;11.560;2022-11-21T03:29:38;17.58;;;9.32;;
13457;SDS011;6801;53.018;11.560;2022-11-21T03:32:07;14.40;;;7.97;;
13457;SDS011;6801;53.018;11.560;2022-11-21T03:34:34;18.35;;;10.32;;
13457;SDS011;6801;53.018;11.560;2022-11-21T03:37:01;12.45;;;7.65;;
13457;SDS011;6801;53.018;11.560;2022-11-21T03:39:28;17.27;;;9.48;;
13457;SDS011;6801;53.018;11.560;2022-11-21T03:41:56;18.08;;;10.07;;
13457;SDS011;6801;53.018;11.560;2022-11-21T03:44:23;14.80;;;8.77;;
13457;SDS011;6801;53.018;11.560;2022-11-21T03:46:50;15.13;;;9.18;;
13457;SDS011;6801;53.018;11.560;2022-11-21T03:49:18;13.55;;;8.30;;
13457;SDS011;6801;53.018;11.560;2022-11-21T03:51:45;15.68;;;9.60;;
13457;SDS011;6801;53.018;11.560;2022-11-21T03:54:12;17.80;;;9.85;;
13457;SDS011;6801;53.018;11.560;2022-11-21T03:56:39;19.33;;;10.65;;
13457;SDS011;6801;53.018;11.560;2022-11-21T03:59:06;15.82;;;9.02;;
13457;SDS011;6801;53.018;11.560;2022-11-21T04:01:33;16.75;;;9.13;;
13457;SDS011;6801;53.018;11.560;2022-11-21T04:04:00;19.52;;;10.73;;
13457;SDS011;6801;53.018;11.560;2022-11-21T04:06:29;15.35;;;9.23;;
13457;SDS011;6801;53.018;11.560;2022-11-21T04:08:56;22.05;;;11.82;;
13457;SDS011;6801;53.018;11.560;2022-11-21T04:11:23;15.57;;;8.93;;
13457;SDS011;6801;53.018;11.560;2022-11-21T04:13:50;15.50;;;8.95;;
13457;SDS011;6801;53.018;11.560;2022-11-21T04:16:17;16.40;;;9.13;;
13457;SDS011;6801;53.018;11.560;2022-11-21T04:18:44;17.48;;;9.40;;
13457;SDS011;6801;53.018;11.560;2022-11-21T04:21:11;20.65;;;11.27;;
13457;SDS011;6801;53.018;11.560;2022-11-21T04:23:40;17.60;;;8.73;;
13457;SDS011;6801;53.018;11.560;2022-11-21T04:26:07;16.60;;;8.90;;
13457;SDS011;6801;53.018;11.560;2022-11-21T04:28:34;16.88;;;8.55;;
13457;SDS011;6801;53.018;11.560;2022-11-21T04:31:01;17.52;;;9.63;;
13457;SDS011;6801;53.018;11.560;2022-11-21T04:33:29;19.80;;;9.85;;
13457;SDS011;6801;53.018;11.560;2022-11-21T04:35:56;21.75;;;11.65;;
13457;SDS011;6801;53.018;11.560;2022-11-21T04:38:23;20.40;;;11.38;;
13457;SDS011;6801;53.018;11.560;2022-11-21T04:40:52;19.13;;;10.48;;
13457;SDS011;6801;53.018;11.560;2022-11-21T04:43:19;17.60;;;9.27;;
13457;SDS011;6801;53.018;11.560;2022-11-21T04:45:46;20.17;;;11.05;;
13457;SDS011;6801;53.018;11.560;2022-11-21T04:48:13;18.88;;;10.57;;
13457;SDS011;6801;53.018;11.560;2022-11-21T04:50:40;20.10;;;11.27;;
13457;SDS011;6801;53.018;11.560;2022-11-21T04:53:07;18.58;;;10.57;;
13457;SDS011;6801;53.018;11.560;2022-11-21T04:55:34;23.83;;;11.10;;
13457;SDS011;6801;53.018;11.560;2022-11-21T04:58:02;20.27;;;11.27;;
13457;SDS011;6801;53.018;11.560;2022-11-21T05:00:29;19.02;;;9.70;;
13457;SDS011;6801;53.018;11.560;2022-11-21T05:03:00;19.27;;;11.05;;
13457;SDS011;6801;53.018;11.560;2022-11-21T05:05:28;17.27;;;9.20;;
13457;SDS011;6801;53.018;11.560;2022-11-21T05:07:55;17.95;;;9.00;;
13457;SDS011;6801;53.018;11.560;2022-11-21T05:10:22;16.23;;;8.85;;
13457;SDS011;6801;53.018;11.560;2022-11-21T05:12:55;17.95;;;9.68;;
13457;SDS011;6801;53.018;11.560;2022-11-21T05:15:41;21.60;;;11.57;;
13457;SDS011;6801;53.018;11.560;2022-11-21T05:18:08;15.38;;;8.80;;
13457;SDS011;6801;53.018;11.560;2022-11-21T05:20:36;20.23;;;10.55;;
13457;SDS011;6801;53.018;11.560;2022-11-21T05:23:03;17.48;;;9.05;;
13457;SDS011;6801;53.018;11.560;2022-11-21T05:25:30;16.73;;;10.32;;
13457;SDS011;6801;53.018;11.560;2022-11-21T05:27:57;18.38;;;10.38;;
13457;SDS011;6801;53.018;11.560;2022-11-21T05:30:24;15.25;;;8.82;;
13457;SDS011;6801;53.018;11.560;2022-11-21T05:32:52;19.50;;;10.18;;
13457;SDS011;6801;53.018;11.560;2022-11-21T05:35:19;19.20;;;9.15;;
13457;SDS011;6801;53.018;11.560;2022-11-21T05:37:46;18.65;;;10.15;;
13457;SDS011;6801;53.018;11.560;2022-11-21T05:40:13;19.35;;;10.75;;
13457;SDS011;6801;53.018;11.560;2022-11-21T05:42:41;19.70;;;10.38;;
13457;SDS011;6801;53.018;11.560;2022-11-21T05:45:25;18.33;;;9.85;;
13457;SDS011;6801;53.018;11.560;2022-11-21T05:47:54;16.15;;;8.77;;
13457;SDS011;6801;53.018;11.560;2022-11-21T05:50:21;17.92;;;10.40;;
13457;SDS011;6801;53.018;11.560;2022-11-21T05:52:48;22.90;;;11.57;;
13457;SDS011;6801;53.018;11.560;2022-11-21T05:55:15;21.35;;;10.00;;
13457;SDS011;6801;53.018;11.560;2022-11-21T05:57:42;17.13;;;9.40;;
13457;SDS011;6801;53.018;11.560;2022-11-21T06:00:09;19.65;;;10.32;;
13457;SDS011;6801;53.018;11.560;2022-11-21T06:02:37;21.50;;;11.48;;
13457;SDS011;6801;53.018;11.560;2022-11-21T06:05:23;16.38;;;8.52;;
13457;SDS011;6801;53.018;11.560;2022-11-21T06:07:50;18.70;;;10.55;;
13457;SDS011;6801;53.018;11.560;2022-11-21T06:10:17;21.02;;;11.75;;
13457;SDS011;6801;53.018;11.560;2022-11-21T06:12:44;15.23;;;8.65;;
13457;SDS011;6801;53.018;11.560;2022-11-21T06:15:11;18.48;;;10.32;;
13457;SDS011;6801;53.018;11.560;2022-11-21T06:17:38;22.05;;;11.40;;
13457;SDS011;6801;53.018;11.560;2022-11-21T06:20:05;30.40;;;21.42;;
13457;SDS011;6801;53.018;11.560;2022-11-21T06:22:34;19.77;;;11.95;;
13457;SDS011;6801;53.018;11.560;2022-11-21T06:25:01;19.08;;;9.88;;
13457;SDS011;6801;53.018;11.560;2022-11-21T06:27:29;22.35;;;11.13;;
13457;SDS011;6801;53.018;11.560;2022-11-21T06:29:56;22.75;;;11.13;;
13457;SDS011;6801;53.018;11.560;2022-11-21T06:32:23;25.80;;;11.35;;
13457;SDS011;6801;53.018;11.560;2022-11-21T06:34:49;19.45;;;10.82;;
13457;SDS011;6801;53.018;11.560;2022-11-21T06:37:16;19.83;;;10.02;;
13457;SDS011;6801;53.018;11.560;2022-11-21T06:39:45;16.15;;;9.30;;
13457;SDS011;6801;53.018;11.560;2022-11-21T06:42:12;15.18;;;9.00;;
13457;SDS011;6801;53.018;11.560;2022-11-21T06:44:39;18.02;;;9.88;;
13457;SDS011;6801;53.018;11.560;2022-11-21T06:47:06;17.50;;;10.23;;
13457;SDS011;6801;53.018;11.560;2022-11-21T06:49:33;19.85;;;9.10;;
13457;SDS011;6801;53.018;11.560;2022-11-21T06:52:00;21.02;;;10.85;;
13457;SDS011;6801;53.018;11.560;2022-11-21T06:54:27;20.60;;;11.73;;
13457;SDS011;6801;53.018;11.560;2022-11-21T06:56:56;22.23;;;11.55;;
13457;SDS011;6801;53.018;11.560;2022-11-21T06:59:23;18.02;;;10.30;;
13457;SDS011;6801;53.018;11.560;2022-11-21T07:01:50;20.48;;;10.27;;
13457;SDS011;6801;53.018;11.560;2022-11-21T07:04:17;25.08;;;11.55;;
13457;SDS011;6801;53.018;11.560;2022-11-21T07:06:44;17.27;;;9.05;;
13457;SDS011;6801;53.018;11.560;2022-11-21T07:09:11;17.08;;;9.18;;
13457;SDS011;6801;53.018;11.560;2022-11-21T07:11:38;20.25;;;10.73;;
13457;SDS011;6801;53.018;11.560;2022-11-21T07:14:07;20.85;;;10.35;;
13457;SDS011;6801;53.018;11.560;2022-11-21T07:16:33;16.40;;;9.20;;
13457;SDS011;6801;53.018;11.560;2022-11-21T07:19:00;19.25;;;10.35;;
13457;SDS011;6801;53.018;11.560;2022-11-21T07:21:27;17.67;;;10.18;;
13457;SDS011;6801;53.018;11.560;2022-11-21T07:23:54;17.08;;;8.80;;
13457;SDS011;6801;53.018;11.560;2022-11-21T07:26:21;20.45;;;10.20;;
13457;SDS011;6801;53.018;11.560;2022-11-21T07:28:48;19.65;;;11.02;;
13457;SDS011;6801;53.018;11.560;2022-11-21T07:31:16;18.83;;;10.98;;
13457;SDS011;6801;53.018;11.560;2022-11-21T07:33:43;19.02;;;10.25;;
13457;SDS011;6801;53.018;11.560;2022-11-21T07:36:12;16.45;;;9.77;;
13457;SDS011;6801;53.018;11.560;2022-11-21T07:38:39;18.77;;;9.88;;
13457;SDS011;6801;53.018;11.560;2022-11-21T07:41:06;17.85;;;9.48;;
13457;SDS011;6801;53.018;11.560;2022-11-21T07:43:33;19.92;;;10.18;;
13457;SDS011;6801;53.018;11.560;2022-11-21T07:46:00;17.02;;;9.80;;
13457;SDS011;6801;53.018;11.560;2022-11-21T07:48:29;16.25;;;9.00;;
13457;SDS011;6801;53.018;11.560;2022-11-21T07:50:56;19.80;;;9.43;;
13457;SDS011;6801;53.018;11.560;2022-11-21T07:53:23;16.15;;;8.23;;
13457;SDS011;6801;53.018;11.560;2022-11-21T07:55:50;16.58;;;8.77;;
13457;SDS011;6801;53.018;11.560;2022-11-21T07:58:17;19.67;;;10.73;;
13457;SDS011;6801;53.018;11.560;2022-11-21T08:00:44;15.80;;;8.93;;
13457;SDS011;6801;53.018;11.560;2022-11-21T08:03:11;19.70;;;10.35;;
13457;SDS011;6801;53.018;11.560;2022-11-21T08:05:40;20.20;;;11.13;;
13457;SDS011;6801;53.018;11.560;2022-11-21T08:08:08;18.35;;;9.48;;
13457;SDS011;6801;53.018;11.560;2022-11-21T08:10:36;18.02;;;10.05;;
13457;SDS011;6801;53.018;11.560;2022-11-21T08:13:04;17.08;;;9.50;;
13457;SDS011;6801;53.018;11.560;2022-11-21T08:15:31;18.27;;;10.38;;
13457;SDS011;6801;53.018;11.560;2022-11-21T08:18:05;17.10;;;9.80;;
13457;SDS011;6801;53.018;11.560;2022-11-21T08:20:33;17.02;;;9.63;;
13457;SDS011;6801;53.018;11.560;2022-11-21T08:23:01;18.27;;;9.85;;
13457;SDS011;6801;53.018;11.560;2022-11-21T08:25:28;17.77;;;9.00;;
13457;SDS011;6801;53.018;11.560;2022-11-21T08:27:55;15.80;;;9.02;;
13457;SDS011;6801;53.018;11.560;2022-11-21T08:30:22;18.50;;;10.30;;
13457;SDS011;6801;53.018;11.560;2022-11-21T08:32:49;23.40;;;10.25;;
13457;SDS011;6801;53.018;11.560;2022-11-21T08:35:16;17.15;;;9.60;;
13457;SDS011;6801;53.018;11.560;2022-11-21T08:37:44;18.50;;;10.05;;
13457;SDS011;6801;53.018;11.560;2022-11-21T08:40:12;18.27;;;9.13;;
13457;SDS011;6801;53.018;11.560;2022-11-21T08:42:39;18.13;;;10.10;;
13457;SDS011;6801;53.018;11.560;2022-11-21T08:45:07;21.85;;;10.80;;
13457;SDS011;6801;53.018;11.560;2022-11-21T08:47:35;18.17;;;9.65;;
13457;SDS011;6801;53.018;11.560;2022-11-21T08:50:02;16.88;;;10.10;;
13457;SDS011;6801;53.018;11.560;2022-11-21T08:52:29;17.65;;;9.52;;
13457;SDS011;6801;53.018;11.560;2022-11-21T08:54:56;17.02;;;9.27;;
13457;SDS011;6801;53.018;11.560;2022-11-21T08:57:25;15.88;;;8.75;;
13457;SDS011;6801;53.018;11.560;2022-11-21T08:59:52;14.95;;;8.65;;
13457;SDS011;6801;53.018;11.560;2022-11-21T09:02:19;18.85;;;10.55;;
13457;SDS011;6801;53.018;11.560;2022-11-21T09:04:46;12.93;;;7.80;;
13457;SDS011;6801;53.018;11.560;2022-11-21T09:07:13;16.75;;;9.80;;
13457;SDS011;6801;53.018;11.560;2022-11-21T09:09:40;17.08;;;8.93;;
13457;SDS011;6801;53.018;11.560;2022-11-21T09:12:07;17.80;;;9.77;;
13457;SDS011;6801;53.018;11.560;2022-11-21T09:14:35;16.90;;;9.98;;
13457;SDS011;6801;53.018;11.560;2022-11-21T09:17:20;18.65;;;10.15;;
13457;SDS011;6801;53.018;11.560;2022-11-21T09:20:04;13.13;;;8.23;;
13457;SDS011;6801;53.018;11.560;2022-11-21T09:22:32;16.55;;;9.90;;
13457;SDS011;6801;53.018;11.560;2022-11-21T09:24:59;15.60;;;9.05;;
13457;SDS011;6801;53.018;11.560;2022-11-21T09:27:26;14.77;;;8.15;;
13457;SDS011;6801;53.018;11.560;2022-11-21T09:29:54;15.07;;;8.60;;
13457;SDS011;6801;53.018;11.560;2022-11-21T09:32:21;16.20;;;7.50;;
13457;SDS011;6801;53.018;11.560;2022-11-21T09:34:49;15.00;;;9.02;;
13457;SDS011;6801;53.018;11.560;2022-11-21T09:37:16;17.95;;;10.80;;
13457;SDS011;6801;53.018;11.560;2022-11-21T09:39:43;20.83;;;11.90;;
13457;SDS011;6801;53.018;11.560;2022-11-21T09:42:18;19.33;;;11.80;;
13457;SDS011;6801;53.018;11.560;2022-11-21T09:45:00;14.63;;;8.23;;
13457;SDS011;6801;53.018;11.560;2022-11-21T09:47:32;19.33;;;10.25;;
13457;SDS011;6801;53.018;11.560;2022-11-21T09:50:03;16.98;;;10.48;;
13457;SDS011;6801;53.018;11.560;2022-11-21T09:52:34;17.55;;;9.65;;
13457;SDS011;6801;53.018;11.560;2022-11-21T09:55:04;16.77;;;8.90;;
13457;SDS011;6801;53.018;11.560;2022-11-21T09:57:38;17.80;;;10.98;;
13457;SDS011;6801;53.018;11.560;2022-11-21T10:00:12;15.20;;;9.48;;
13457;SDS011;6801;53.018;11.560;2022-11-21T10:02:41;17.13;;;9.95;;
13457;SDS011;6801;53.018;11.560;2022-11-21T10:05:11;18.80;;;10.77;;
13457;SDS011;6801;53.018;11.560;2022-11-21T10:10:23;17.95;;;9.60;;
13457;SDS011;6801;53.018;11.560;2022-11-21T10:13:03;15.75;;;8.43;;
13457;SDS011;6801;53.018;11.560;2022-11-21T10:15:42;18.42;;;10.65;;
13457;SDS011;6801;53.018;11.560;2022-11-21T10:18:30;17.30;;;10.23;;
13457;SDS011;6801;53.018;11.560;2022-11-21T10:21:12;16.88;;;8.35;;
13457;SDS011;6801;53.018;11.560;2022-11-21T10:23:55;20.48;;;10.50;;
13457;SDS011;6801;53.018;11.560;2022-11-21T10:26:34;16.20;;;9.07;;
13457;SDS011;6801;53.018;11.560;2022-11-21T10:29:08;15.95;;;9.95;;
13457;SDS011;6801;53.018;11.560;2022-11-21T10:31:44;18.20;;;10.27;;
13457;SDS011;6801;53.018;11.560;2022-11-21T10:34:14;18.90;;;10.70;;
13457;SDS011;6801;53.018;11.560;2022-11-21T10:36:46;20.75;;;10.40;;
13457;SDS011;6801;53.018;11.560;2022-11-21T10:39:18;16.25;;;9.63;;
13457;SDS011;6801;53.018;11.560;2022-11-21T10:41:52;12.02;;;7.30;;
13457;SDS011;6801;53.018;11.560;2022-11-21T10:44:24;15.00;;;8.68;;
13457;SDS011;6801;53.018;11.560;2022-11-21T10:47:15;17.38;;;10.68;;
13457;SDS011;6801;53.018;11.560;2022-11-21T10:49:52;15.15;;;8.88;;
13457;SDS011;6801;53.018;11.560;2022-11-21T10:52:24;14.68;;;9.73;;
13457;SDS011;6801;53.018;11.560;2022-11-21T10:55:02;16.38;;;9.35;;
13457;SDS011;6801;53.018;11.560;2022-11-21T10:57:36;16.23;;;8.95;;
13457;SDS011;6801;53.018;11.560;2022-11-21T11:00:21;18.58;;;9.93;;
13457;SDS011;6801;53.018;11.560;2022-11-21T11:05:52;12.77;;;7.97;;
13457;SDS011;6801;53.018;11.560;2022-11-21T11:08:21;24.20;;;15.85;;
13457;SDS011;6801;53.018;11.560;2022-11-21T11:10:59;17.63;;;10.68;;
13457;SDS011;6801;53.018;11.560;2022-11-21T11:13:28;16.75;;;9.52;;
13457;SDS011;6801;53.018;11.560;2022-11-21T11:16:00;16.73;;;10.05;;
13457;SDS011;6801;53.018;11.560;2022-11-21T11:18:31;17.67;;;10.20;;
13457;SDS011;6801;53.018;11.560;2022-11-21T11:23:44;12.15;;;7.00;;
13457;SDS011;6801;53.018;11.560;2022-11-21T11:26:20;15.40;;;8.95;;
13457;SDS011;6801;53.018;11.560;2022-11-21T11:28:51;14.35;;;8.65;;
13457;SDS011;6801;53.018;11.560;2022-11-21T11:31:20;16.10;;;8.95;;
13457;SDS011;6801;53.018;11.560;2022-11-21T11:33:53;16.25;;;8.63;;
13457;SDS011;6801;53.018;11.560;2022-11-21T11:36:30;13.57;;;7.65;;
13457;SDS011;6801;53.018;11.560;2022-11-21T11:39:12;15.10;;;8.93;;
13457;SDS011;6801;53.018;11.560;2022-11-21T11:41:58;13.90;;;8.75;;
13457;SDS011;6801;53.018;11.560;2022-11-21T11:45:00;15.50;;;8.43;;
13457;SDS011;6801;53.018;11.560;2022-11-21T11:47:58;15.00;;;8.05;;
13457;SDS011;6801;53.018;11.560;2022-11-21T11:50:29;12.75;;;8.00;;
13457;SDS011;6801;53.018;11.560;2022-11-21T11:53:01;15.05;;;8.52;;
13457;SDS011;6801;53.018;11.560;2022-11-21T11:55:34;14.65;;;8.68;;
13457;SDS011;6801;53.018;11.560;2022-11-21T11:58:06;13.82;;;7.88;;
13457;SDS011;6801;53.018;11.560;2022-11-21T12:00:41;13.65;;;8.32;;
13457;SDS011;6801;53.018;11.560;2022-11-21T12:03:13;15.60;;;9.63;;
13457;SDS011;6801;53.018;11.560;2022-11-21T12:05:59;14.30;;;8.60;;
13457;SDS011;6801;53.018;11.560;2022-11-21T12:08:33;14.27;;;8.40;;
13457;SDS011;6801;53.018;11.560;2022-11-21T12:11:09;15.07;;;8.80;;
13457;SDS011;6801;53.018;11.560;2022-11-21T12:14:02;15.38;;;8.63;;
13457;SDS011;6801;53.018;11.560;2022-11-21T12:16:36;13.05;;;7.15;;
13457;SDS011;6801;53.018;11.560;2022-11-21T12:19:06;11.00;;;6.70;;
13457;SDS011;6801;53.018;11.560;2022-11-21T12:21:41;12.52;;;7.15;;
13457;SDS011;6801;53.018;11.560;2022-11-21T12:24:08;11.02;;;6.55;;
13457;SDS011;6801;53.018;11.560;2022-11-21T12:26:39;11.13;;;6.78;;
13457;SDS011;6801;53.018;11.560;2022-11-21T12:29:21;11.70;;;6.85;;
13457;SDS011;6801;53.018;11.560;2022-11-21T12:32:08;10.55;;;6.28;;
13457;SDS011;6801;53.018;11.560;2022-11-21T12:34:52;10.88;;;5.97;;
13457;SDS011;6801;53.018;11.560;2022-11-21T12:37:34;11.82;;;7.18;;
13457;SDS011;6801;53.018;11.560;2022-11-21T12:40:15;9.55;;;6.47;;
13457;SDS011;6801;53.018;11.560;2022-11-21T12:42:55;9.68;;;5.97;;
13457;SDS011;6801;53.018;11.560;2022-11-21T12:45:29;9.43;;;6.28;;
13457;SDS011;6801;53.018;11.560;2022-11-21T12:51:12;10.57;;;5.65;;
13457;SDS011;6801;53.018;11.560;2022-11-21T12:54:21;8.90;;;5.80;;
13457;SDS011;6801;53.018;11.560;2022-11-21T12:57:09;9.60;;;5.97;;
13457;SDS011;6801;53.018;11.560;2022-11-21T12:59:42;11.90;;;5.50;;
13457;SDS011;6801;53.018;11.560;2022-11-21T13:02:30;10.23;;;5.72;;
13457;SDS011;6801;53.018;11.560;2022-11-21T13:05:07;11.20;;;6.63;;
13457;SDS011;6801;53.018;11.560;2022-11-21T13:07:38;9.50;;;6.30;;
13457;SDS011;6801;53.018;11.560;2022-11-21T13:10:10;12.18;;;6.82;;
13457;SDS011;6801;53.018;11.560;2022-11-21T13:12:41;13.77;;;8.27;;
13457;SDS011;6801;53.018;11.560;2022-11-21T13:15:15;13.70;;;7.72;;
13457;SDS011;6801;53.018;11.560;2022-11-21T13:17:48;14.20;;;8.18;;
13457;SDS011;6801;53.018;11.560;2022-11-21T13:20:29;12.07;;;8.02;;
13457;SDS011;6801;53.018;11.560;2022-11-21T13:22:59;12.82;;;8.18;;
13457;SDS011;6801;53.018;11.560;2022-11-21T13:25:35;11.52;;;6.80;;
13457;SDS011;6801;53.018;11.560;2022-11-21T13:28:21;12.52;;;7.80;;
13457;SDS011;6801;53.018;11.560;2022-11-21T13:30:55;11.50;;;7.47;;
13457;SDS011;6801;53.018;11.560;2022-11-21T13:33:45;11.13;;;7.05;;
13457;SDS011;6801;53.018;11.560;2022-11-21T13:39:23;13.93;;;7.25;;
13457;SDS011;6801;53.018;11.560;2022-11-21T13:42:00;11.32;;;6.55;;
13457;SDS011;6801;53.018;11.560;2022-11-21T13:44:55;13.60;;;8.25;;
13457;SDS011;6801;53.018;11.560;2022-11-21T13:50:49;13.43;;;8.15;;
13457;SDS011;6801;53.018;11.560;2022-11-21T13:53:30;12.40;;;8.15;;
13457;SDS011;6801;53.018;11.560;2022-11-21T13:56:07;13.82;;;7.28;;
13457;SDS011;6801;53.018;11.560;2022-11-21T13:58:47;12.20;;;7.35;;
13457;SDS011;6801;53.018;11.560;2022-11-21T14:01:26;12.40;;;7.38;;
13457;SDS011;6801;53.018;11.560;2022-11-21T14:07:23;11.35;;;7.47;;
13457;SDS011;6801;53.018;11.560;2022-11-21T14:09:53;11.25;;;7.18;;
13457;SDS011;6801;53.018;11.560;2022-11-21T14:12:23;10.50;;;5.97;;
13457;SDS011;6801;53.018;11.560;2022-11-21T14:15:09;11.20;;;6.85;;
13457;SDS011;6801;53.018;11.560;2022-11-21T14:17:45;10.57;;;6.40;;
13457;SDS011;6801;53.018;11.560;2022-11-21T14:20:15;11.93;;;7.28;;
13457;SDS011;6801;53.018;11.560;2022-11-21T14:22:50;11.85;;;7.07;;
13457;SDS011;6801;53.018;11.560;2022-11-21T14:25:21;9.85;;;5.95;;
13457;SDS011;6801;53.018;11.560;2022-11-21T14:30:31;11.80;;;6.80;;
13457;SDS011;6801;53.018;11.560;2022-11-21T14:35:54;12.35;;;6.93;;
13457;SDS011;6801;53.018;11.560;2022-11-21T14:38:25;11.75;;;7.25;;
13457;SDS011;6801;53.018;11.560;2022-11-21T14:44:03;11.05;;;6.45;;
13457;SDS011;6801;53.018;11.560;2022-11-21T14:46:33;11.82;;;6.82;;
13457;SDS011;6801;53.018;11.560;2022-11-21T14:51:46;10.35;;;6.55;;
13457;SDS011;6801;53.018;11.560;2022-11-21T14:54:15;11.07;;;6.63;;
13457;SDS011;6801;53.018;11.560;2022-11-21T14:56:45;11.20;;;7.00;;
13457;SDS011;6801;53.018;11.560;2022-11-21T14:59:15;10.02;;;6.40;;
13457;SDS011;6801;53.018;11.560;2022-11-21T15:01:59;9.07;;;5.70;;
13457;SDS011;6801;53.018;11.560;2022-11-21T15:04:29;9.70;;;5.78;;
13457;SDS011;6801;53.018;11.560;2022-11-21T15:06:57;9.27;;;4.97;;
13457;SDS011;6801;53.018;11.560;2022-11-21T15:09:25;9.52;;;5.45;;
13457;SDS011;6801;53.018;11.560;2022-11-21T15:11:53;9.35;;;5.45;;
13457;SDS011;6801;53.018;11.560;2022-11-21T15:14:26;9.98;;;5.00;;
13457;SDS011;6801;53.018;11.560;2022-11-21T15:17:00;9.15;;;5.10;;
13457;SDS011;6801;53.018;11.560;2022-11-21T15:19:29;20.35;;;10.95;;
13457;SDS011;6801;53.018;11.560;2022-11-21T15:21:58;10.48;;;6.38;;
13457;SDS011;6801;53.018;11.560;2022-11-21T15:24:36;12.60;;;6.60;;
13457;SDS011;6801;53.018;11.560;2022-11-21T15:27:22;10.20;;;5.78;;
13457;SDS011;6801;53.018;11.560;2022-11-21T15:30:00;7.05;;;4.28;;